Time;durP1;ratioP1;P1;durP2;ratioP2;P2;SDS_P1;SDS_P2;PMS_P1;PMS_P2;Temp;Humidity;BMP_temperature;BMP_pressure;BME280_temperature;BME280_humidity;BME280_pressure;Samples;Min_cycle;Max_cycle;Signal;HPM_P1;HPM_P2
2021/06/09 00:02:07;;;;;;;14.83;13.40;;;17.20;99.90;;;;;;5046002;28;20488;-81
2021/06/09 00:04:35;;;;;;;14.63;13.23;;;17.20;99.90;;;;;;5046213;28;20438;-81
2021/06/09 00:07:01;;;;;;;14.47;13.07;;;17.10;99.90;;;;;;5043471;28;20833;-81
2021/06/09 00:09:27;;;;;;;14.20;12.90;;;17.10;99.90;;;;;;5035733;28;20539;-81
2021/06/09 00:11:56;;;;;;;13.97;12.57;;;17.10;99.90;;;;;;5044526;28;20543;-81
2021/06/09 00:14:27;;;;;;;14.70;13.40;;;17.00;99.90;;;;;;5033786;28;20445;-81
2021/06/09 00:16:57;;;;;;;14.83;13.23;;;17.00;99.90;;;;;;5033181;28;20417;-81
2021/06/09 00:19:27;;;;;;;13.87;12.47;;;16.90;99.90;;;;;;5033080;28;20439;-81
2021/06/09 00:21:59;;;;;;;14.70;13.20;;;16.90;99.90;;;;;;5021327;28;20485;-81
2021/06/09 00:24:27;;;;;;;16.57;13.67;;;16.80;99.90;;;;;;5031969;28;20433;-81
2021/06/09 00:27:11;;;;;;;14.83;13.33;;;16.70;99.90;;;;;;5042633;28;20472;-81
2021/06/09 00:29:39;;;;;;;15.00;13.50;;;16.70;99.90;;;;;;5036796;28;20465;-81
2021/06/09 00:32:07;;;;;;;14.77;13.27;;;16.60;99.90;;;;;;5044860;28;20486;-80
2021/06/09 00:34:33;;;;;;;15.47;14.07;;;16.60;99.90;;;;;;5042349;28;20899;-81
2021/06/09 00:37:05;;;;;;;15.67;14.27;;;16.60;99.90;;;;;;5046285;28;20498;-81
2021/06/09 00:39:31;;;;;;;15.60;14.10;;;16.60;99.90;;;;;;5025482;28;20770;-81
2021/06/09 00:41:59;;;;;;;16.83;15.13;;;16.60;99.90;;;;;;5033534;28;20443;-81
2021/06/09 00:44:30;;;;;;;15.83;14.27;;;16.50;99.90;;;;;;5030381;28;20431;-81
2021/06/09 00:46:56;;;;;;;17.70;15.80;;;16.50;99.90;;;;;;5041434;28;20863;-81
2021/06/09 00:49:24;;;;;;;15.97;14.47;;;16.50;99.90;;;;;;5014354;28;20446;-81
2021/06/09 00:51:52;;;;;;;16.17;14.60;;;16.50;99.90;;;;;;5035054;28;20980;-81
2021/06/09 00:54:20;;;;;;;14.73;13.03;;;16.50;99.90;;;;;;5028611;28;20435;-81
2021/06/09 00:56:46;;;;;;;14.07;12.77;;;16.40;99.90;;;;;;5029123;28;20775;-81
2021/06/09 00:59:15;;;;;;;17.83;14.77;;;16.40;99.90;;;;;;5031453;28;20424;-81
2021/06/09 01:01:43;;;;;;;14.07;12.77;;;16.40;99.90;;;;;;5030414;28;20432;-81
2021/06/09 01:04:11;;;;;;;13.90;12.50;;;16.30;99.90;;;;;;5043556;28;20443;-81
2021/06/09 01:06:42;;;;;;;15.03;13.53;;;16.30;99.90;;;;;;5052192;28;20458;-81
2021/06/09 01:09:11;;;;;;;14.50;12.97;;;16.30;99.90;;;;;;5019348;28;20750;-81
2021/06/09 01:11:37;;;;;;;14.73;13.23;;;16.30;99.90;;;;;;5019186;28;20451;-81
2021/06/09 01:14:05;;;;;;;18.07;13.60;;;16.20;99.90;;;;;;5025149;28;20477;-81
2021/06/09 01:16:34;;;;;;;19.87;13.70;;;16.20;99.90;;;;;;5040644;28;21317;-81
2021/06/09 01:19:02;;;;;;;15.97;14.47;;;16.10;99.90;;;;;;5041941;28;20901;-81
2021/06/09 01:21:32;;;;;;;14.83;13.23;;;16.10;99.90;;;;;;5040285;28;20446;-81
2021/06/09 01:24:04;;;;;;;15.00;13.50;;;16.10;99.90;;;;;;5042643;28;20480;-80
2021/06/09 01:26:31;;;;;;;13.97;12.70;;;16.10;99.90;;;;;;5028762;28;20445;-81
2021/06/09 01:28:59;;;;;;;13.50;12.20;;;16.10;99.90;;;;;;5031257;28;20424;-81
2021/06/09 01:31:26;;;;;;;14.77;13.30;;;16.10;99.90;;;;;;5032915;28;20438;-81
2021/06/09 01:33:52;;;;;;;15.17;12.00;;;16.10;99.90;;;;;;5044779;28;20478;-81
2021/06/09 01:36:21;;;;;;;13.50;12.30;;;16.00;99.90;;;;;;5028372;28;20479;-81
2021/06/09 01:38:52;;;;;;;13.57;12.17;;;16.10;99.90;;;;;;5041591;28;20443;-81
2021/06/09 01:41:25;;;;;;;13.33;11.87;;;16.10;99.90;;;;;;5015442;28;20497;-81
2021/06/09 01:43:55;;;;;;;12.93;11.63;;;16.00;99.90;;;;;;5046017;28;20474;-81
2021/06/09 01:46:23;;;;;;;13.50;12.20;;;16.00;99.90;;;;;;5020939;28;20767;-81
2021/06/09 01:48:49;;;;;;;15.83;13.50;;;16.00;99.90;;;;;;5033690;28;20460;-81
2021/06/09 01:51:19;;;;;;;14.50;13.20;;;16.00;99.90;;;;;;5015106;28;20435;-81
2021/06/09 01:53:51;;;;;;;13.77;12.37;;;15.90;99.90;;;;;;5046254;28;20459;-81
2021/06/09 01:56:21;;;;;;;14.53;13.10;;;15.90;99.90;;;;;;5040744;28;20494;-81
2021/06/09 01:58:47;;;;;;;12.87;11.67;;;15.90;99.90;;;;;;5019152;28;20423;-81
2021/06/09 02:01:17;;;;;;;13.70;12.50;;;15.90;99.90;;;;;;5028560;28;20425;-81
2021/06/09 02:03:46;;;;;;;13.43;12.20;;;15.90;99.90;;;;;;5009710;28;20499;-81
2021/06/09 02:06:12;;;;;;;14.93;13.47;;;15.90;99.90;;;;;;5036145;28;20505;-81
2021/06/09 02:08:43;;;;;;;15.00;13.47;;;15.90;99.90;;;;;;5031266;28;20427;-81
2021/06/09 02:11:09;;;;;;;14.67;13.17;;;16.00;99.90;;;;;;5048772;28;20428;-81
2021/06/09 02:13:38;;;;;;;13.83;12.40;;;16.00;99.90;;;;;;5038958;28;20434;-81
2021/06/09 02:16:06;;;;;;;14.00;12.73;;;16.00;99.90;;;;;;5023638;28;20459;-81
2021/06/09 02:18:34;;;;;;;14.83;13.33;;;16.00;99.90;;;;;;5041215;28;20809;-81
2021/06/09 02:21:03;;;;;;;15.13;13.80;;;16.00;99.90;;;;;;5033571;28;20423;-81
2021/06/09 02:23:35;;;;;;;15.03;13.40;;;16.00;99.90;;;;;;5036717;28;20894;-81
2021/06/09 02:26:04;;;;;;;15.27;13.77;;;15.90;99.90;;;;;;5028424;28;20438;-80
2021/06/09 02:28:32;;;;;;;17.33;13.97;;;15.90;99.90;;;;;;5034617;28;20431;-81
2021/06/09 02:31:00;;;;;;;16.40;14.67;;;15.90;99.90;;;;;;5014685;28;20451;-81
2021/06/09 02:33:28;;;;;;;15.50;14.00;;;15.80;99.90;;;;;;5048074;28;20483;-81
2021/06/09 02:35:58;;;;;;;16.07;14.37;;;15.70;99.90;;;;;;5037437;28;20508;-81
2021/06/09 02:38:24;;;;;;;16.33;14.40;;;15.80;99.90;;;;;;5029616;28;20438;-80
2021/06/09 02:40:53;;;;;;;16.83;14.33;;;15.70;99.90;;;;;;5048642;28;20433;-81
2021/06/09 02:43:31;;;;;;;16.77;15.07;;;15.60;99.90;;;;;;5048027;28;20429;-81
2021/06/09 02:46:11;;;;;;;16.50;14.90;;;15.60;99.90;;;;;;5039883;28;20444;-81
2021/06/09 02:48:44;;;;;;;18.07;14.43;;;15.60;99.90;;;;;;5047258;28;20419;-81
2021/06/09 02:51:15;;;;;;;17.73;13.93;;;15.50;99.90;;;;;;5028297;28;20843;-81
2021/06/09 02:54:10;;;;;;;17.03;15.37;;;15.50;99.90;;;;;;5040953;28;20431;-81
2021/06/09 02:56:51;;;;;;;16.57;14.87;;;15.50;99.90;;;;;;4999605;28;20814;-81
2021/06/09 02:59:42;;;;;;;17.07;15.47;;;15.50;99.90;;;;;;5026500;28;20449;-81
2021/06/09 03:02:36;;;;;;;18.13;15.67;;;15.60;99.90;;;;;;5028859;28;20783;-81
2021/06/09 03:05:13;;;;;;;16.50;14.80;;;15.50;99.90;;;;;;5000949;28;20502;-81
2021/06/09 03:08:03;;;;;;;15.50;14.00;;;15.50;99.90;;;;;;5033759;28;20456;-81
2021/06/09 03:10:49;;;;;;;15.87;14.17;;;15.50;99.90;;;;;;5023546;28;20874;-81
2021/06/09 03:14:01;;;;;;;17.03;15.23;;;15.40;99.90;;;;;;5049292;28;20423;-80
2021/06/09 03:16:46;;;;;;;16.33;14.67;;;15.40;99.90;;;;;;5008532;28;20455;-81
2021/06/09 03:19:20;;;;;;;17.17;15.03;;;15.30;99.90;;;;;;5033662;28;20557;-80
2021/06/09 03:22:06;;;;;;;15.77;14.20;;;15.20;99.90;;;;;;5026201;28;20472;-81
2021/06/09 03:24:47;;;;;;;16.93;15.13;;;15.30;99.90;;;;;;5024033;28;20508;-81
2021/06/09 03:27:32;;;;;;;16.00;14.30;;;15.20;99.90;;;;;;5020447;28;20438;-81
2021/06/09 03:30:13;;;;;;;17.13;15.43;;;15.20;99.90;;;;;;5020438;28;20447;-81
2021/06/09 03:32:44;;;;;;;17.70;15.03;;;15.20;99.90;;;;;;5019260;28;20471;-81
2021/06/09 03:35:18;;;;;;;17.37;15.20;;;15.20;99.90;;;;;;5027444;28;20557;-81
2021/06/09 03:37:48;;;;;;;16.73;15.13;;;15.30;99.90;;;;;;5040158;28;20822;-81
2021/06/09 03:40:20;;;;;;;19.17;17.17;;;15.30;99.90;;;;;;5031483;28;20419;-81
2021/06/09 03:43:01;;;;;;;15.70;14.10;;;15.30;99.90;;;;;;5023973;28;20439;-81
2021/06/09 03:45:31;;;;;;;16.50;14.67;;;15.30;99.90;;;;;;5026001;28;20850;-81
2021/06/09 03:47:59;;;;;;;17.97;16.27;;;15.30;99.90;;;;;;5039944;28;20427;-81
2021/06/09 03:50:30;;;;;;;16.57;14.87;;;15.30;99.90;;;;;;5011164;28;20454;-81
2021/06/09 03:53:02;;;;;;;17.50;15.37;;;15.30;99.90;;;;;;5046909;28;20460;-81
2021/06/09 03:55:32;;;;;;;15.93;14.23;;;15.30;99.90;;;;;;5026109;28;20451;-81
2021/06/09 03:58:03;;;;;;;17.50;15.70;;;15.30;99.90;;;;;;5030494;28;20418;-80
2021/06/09 04:00:29;;;;;;;18.10;16.20;;;15.20;99.90;;;;;;5030555;28;20573;-80
2021/06/09 04:02:57;;;;;;;18.20;16.30;;;15.20;99.90;;;;;;5028500;28;20454;-81
2021/06/09 04:05:30;;;;;;;17.50;15.80;;;15.20;99.90;;;;;;5026914;28;20433;-80
2021/06/09 04:07:59;;;;;;;18.73;16.87;;;15.20;99.90;;;;;;5040785;28;20438;-81
2021/06/09 04:10:27;;;;;;;19.20;17.20;;;15.20;99.90;;;;;;5031926;28;20810;-81
2021/06/09 04:12:56;;;;;;;20.07;17.53;;;15.10;99.90;;;;;;5044900;28;20878;-81
2021/06/09 04:15:24;;;;;;;20.70;18.40;;;15.20;99.90;;;;;;5017969;28;20579;-81
2021/06/09 04:17:55;;;;;;;19.70;17.80;;;15.20;99.90;;;;;;5042187;28;20501;-81
2021/06/09 04:20:30;;;;;;;20.40;18.40;;;15.30;99.90;;;;;;5043280;28;20485;-81
2021/06/09 04:22:57;;;;;;;21.50;19.30;;;15.30;99.90;;;;;;5020846;28;20445;-81
2021/06/09 04:25:25;;;;;;;21.40;19.10;;;15.30;99.90;;;;;;5046478;28;20502;-81
2021/06/09 04:27:54;;;;;;;23.73;19.90;;;15.30;99.90;;;;;;5028085;28;20470;-81
2021/06/09 04:30:21;;;;;;;20.50;18.40;;;15.30;99.90;;;;;;5036601;28;20921;-81
2021/06/09 04:33:02;;;;;;;21.20;19.00;;;15.30;99.90;;;;;;5039327;28;20472;-81
2021/06/09 04:35:36;;;;;;;22.67;20.37;;;15.30;99.90;;;;;;5049825;28;20485;-80
2021/06/09 04:38:04;;;;;;;23.80;21.23;;;15.40;99.90;;;;;;5049172;28;20426;-81
2021/06/09 04:40:31;;;;;;;22.97;20.47;;;15.40;99.90;;;;;;5034183;28;20451;-81
2021/06/09 04:43:01;;;;;;;24.23;21.73;;;15.40;99.90;;;;;;5042565;28;20436;-81
2021/06/09 04:45:31;;;;;;;24.10;20.70;;;15.50;99.90;;;;;;5044871;28;20519;-81
2021/06/09 04:47:59;;;;;;;22.77;20.40;;;15.50;99.90;;;;;;5048134;28;20457;-80
2021/06/09 04:50:30;;;;;;;24.57;21.50;;;15.60;99.90;;;;;;5060251;28;20438;-80
2021/06/09 04:53:10;;;;;;;23.13;20.70;;;15.70;99.90;;;;;;5031174;28;20445;-81
2021/06/09 04:55:41;;;;;;;25.10;20.73;;;15.80;99.90;;;;;;5053806;28;20468;-81
2021/06/09 04:58:10;;;;;;;23.43;20.40;;;15.90;99.90;;;;;;5043290;28;20444;-81
2021/06/09 05:00:37;;;;;;;21.87;19.53;;;16.00;99.90;;;;;;5046659;28;20500;-80
2021/06/09 05:03:03;;;;;;;25.97;23.17;;;16.10;99.90;;;;;;5052900;28;20427;-81
2021/06/09 05:05:29;;;;;;;22.30;19.90;;;16.20;99.90;;;;;;5056147;28;20427;-81
2021/06/09 05:07:55;;;;;;;25.50;21.80;;;16.30;99.90;;;;;;5052600;28;20834;-81
2021/06/09 05:10:24;;;;;;;24.77;21.80;;;16.40;99.90;;;;;;5050011;28;20526;-81
2021/06/09 05:13:00;;;;;;;24.93;20.20;;;16.50;99.90;;;;;;5041003;28;20432;-81
2021/06/09 05:15:29;;;;;;;24.87;22.47;;;16.70;99.90;;;;;;5050291;28;20543;-81
2021/06/09 05:17:56;;;;;;;24.90;22.50;;;16.70;99.90;;;;;;5021834;28;20924;-80
2021/06/09 05:20:34;;;;;;;26.27;23.30;;;16.80;99.90;;;;;;5052786;28;20471;-81
2021/06/09 05:23:28;;;;;;;30.93;24.90;;;16.90;99.90;;;;;;5047544;28;20480;-81
2021/06/09 05:25:56;;;;;;;28.30;24.53;;;17.00;99.90;;;;;;5040957;28;20448;-81
2021/06/09 05:28:26;;;;;;;29.07;26.03;;;17.10;99.90;;;;;;5061996;28;20427;-81
2021/06/09 05:30:57;;;;;;;28.27;25.10;;;17.10;99.90;;;;;;5043812;28;20425;-80
2021/06/09 05:33:28;;;;;;;29.00;25.73;;;17.30;99.90;;;;;;5033648;28;20830;-81
2021/06/09 05:35:58;;;;;;;31.07;27.70;;;17.40;99.90;;;;;;5066619;28;20467;-81
2021/06/09 05:38:25;;;;;;;31.57;27.93;;;17.50;99.90;;;;;;5053403;28;20446;-81
2021/06/09 05:40:55;;;;;;;32.67;29.17;;;17.60;99.90;;;;;;5060046;28;20778;-81
2021/06/09 05:43:23;;;;;;;34.57;28.87;;;17.70;99.90;;;;;;5060389;28;20424;-80
2021/06/09 05:45:50;;;;;;;37.37;31.80;;;17.70;99.90;;;;;;5034232;28;20430;-80
2021/06/09 05:48:21;;;;;;;38.27;32.77;;;17.90;99.90;;;;;;5046855;28;20510;-80
2021/06/09 05:50:52;;;;;;;38.80;32.70;;;18.00;99.90;;;;;;5048527;28;20489;-80
2021/06/09 05:53:23;;;;;;;36.83;32.97;;;18.10;99.90;;;;;;5035473;28;20433;-80
2021/06/09 05:55:49;;;;;;;36.43;32.27;;;18.20;99.90;;;;;;5023141;28;20458;-80
2021/06/09 05:58:20;;;;;;;42.33;32.80;;;18.30;99.90;;;;;;5061943;28;20462;-79
2021/06/09 06:00:54;;;;;;;44.63;33.50;;;18.40;99.90;;;;;;5044731;28;20440;-79
2021/06/09 06:03:22;;;;;;;44.20;35.20;;;18.40;99.90;;;;;;5047299;28;20944;-79
2021/06/09 06:05:56;;;;;;;37.00;32.77;;;18.50;99.90;;;;;;5018797;28;20449;-79
2021/06/09 06:08:24;;;;;;;36.93;33.00;;;18.70;99.90;;;;;;5040060;28;20430;-79
2021/06/09 06:10:50;;;;;;;41.10;34.10;;;18.70;99.90;;;;;;5043675;28;20430;-79
2021/06/09 06:13:18;;;;;;;39.77;33.07;;;18.80;99.90;;;;;;5053092;28;20444;-79
2021/06/09 06:15:47;;;;;;;36.83;33.03;;;18.80;99.90;;;;;;5044038;28;20462;-77
2021/06/09 06:18:16;;;;;;;36.83;32.37;;;18.90;99.90;;;;;;5040902;28;20498;-79
2021/06/09 06:20:44;;;;;;;36.87;33.17;;;19.10;99.90;;;;;;5048815;28;20437;-82
2021/06/09 06:23:10;;;;;;;40.27;33.77;;;19.20;99.90;;;;;;5028166;28;20786;-82
2021/06/09 06:25:41;;;;;;;36.20;32.20;;;19.30;99.90;;;;;;5054864;28;20846;-80
2021/06/09 06:28:10;;;;;;;35.60;31.80;;;19.40;99.90;;;;;;5068692;28;20798;-80
2021/06/09 06:30:38;;;;;;;38.13;34.00;;;19.50;99.90;;;;;;5027605;28;20501;-80
2021/06/09 06:33:05;;;;;;;39.97;34.67;;;19.70;99.90;;;;;;5049055;28;20954;-80
2021/06/09 06:35:34;;;;;;;38.83;33.60;;;19.80;99.90;;;;;;5042202;28;20463;-79
2021/06/09 06:38:02;;;;;;;41.63;36.33;;;19.90;99.90;;;;;;5017319;28;21163;-81
2021/06/09 06:40:31;;;;;;;40.23;35.83;;;19.90;99.90;;;;;;5041722;28;20428;-80
2021/06/09 06:42:57;;;;;;;40.70;34.47;;;19.90;99.90;;;;;;5033960;28;20458;-79
2021/06/09 06:45:24;;;;;;;37.83;32.90;;;20.00;99.90;;;;;;5036315;28;20479;-79
2021/06/09 06:47:51;;;;;;;39.20;34.30;;;20.00;99.90;;;;;;5021300;28;20928;-79
2021/06/09 06:50:22;;;;;;;41.00;34.50;;;20.10;99.90;;;;;;5037126;28;20765;-80
2021/06/09 06:52:49;;;;;;;40.57;35.23;;;20.30;99.90;;;;;;5001558;28;20530;-80
2021/06/09 06:55:22;;;;;;;39.73;35.40;;;20.40;99.90;;;;;;5018492;28;20488;-80
2021/06/09 06:57:49;;;;;;;39.03;35.00;;;20.50;99.90;;;;;;5045328;28;20468;-79
2021/06/09 07:00:19;;;;;;;42.27;36.17;;;20.60;99.90;;;;;;5032157;28;20431;-79
2021/06/09 07:02:51;;;;;;;42.20;37.63;;;20.80;99.90;;;;;;5018302;28;20487;-79
2021/06/09 07:05:18;;;;;;;40.87;35.40;;;20.90;99.90;;;;;;5032936;28;20506;-78
2021/06/09 07:07:45;;;;;;;42.53;37.33;;;20.90;99.90;;;;;;5048808;28;20470;-78
2021/06/09 07:10:15;;;;;;;44.23;36.00;;;20.90;99.90;;;;;;5040915;28;20489;-78
2021/06/09 07:12:45;;;;;;;41.00;36.57;;;21.00;99.90;;;;;;5047872;28;20454;-78
2021/06/09 07:15:18;;;;;;;40.90;36.57;;;21.10;99.90;;;;;;5035696;28;20464;-79
2021/06/09 07:17:50;;;;;;;46.57;36.90;;;21.20;99.90;;;;;;5011111;28;20427;-78
2021/06/09 07:20:24;;;;;;;40.43;36.23;;;21.30;99.90;;;;;;5046287;28;20441;-78
2021/06/09 07:22:56;;;;;;;40.40;36.10;;;21.30;99.90;;;;;;5048586;28;20455;-78
2021/06/09 07:25:23;;;;;;;41.50;37.40;;;21.40;99.90;;;;;;5049825;28;20838;-78
2021/06/09 07:27:54;;;;;;;40.93;36.73;;;21.40;99.90;;;;;;5042829;28;20904;-79
2021/06/09 07:30:32;;;;;;;38.07;34.10;;;21.50;99.90;;;;;;5034242;28;20436;-79
2021/06/09 07:33:02;;;;;;;38.67;34.67;;;21.50;99.90;;;;;;5032272;28;20475;-81
2021/06/09 07:35:31;;;;;;;40.17;36.00;;;21.70;99.90;;;;;;5032771;28;20488;-82
2021/06/09 07:38:30;;;;;;;44.90;36.00;;;21.80;99.90;;;;;;5003833;28;20533;-80
2021/06/09 07:40:59;;;;;;;47.30;39.80;;;21.80;99.90;;;;;;5019101;28;20483;-80
2021/06/09 07:43:38;;;;;;;38.17;34.07;;;21.90;99.90;;;;;;5044145;28;20434;-80
2021/06/09 07:46:09;;;;;;;45.80;36.70;;;21.90;99.90;;;;;;5036295;28;20482;-80
2021/06/09 07:48:40;;;;;;;38.00;33.87;;;22.10;99.90;;;;;;5037063;28;20426;-83
2021/06/09 07:51:09;;;;;;;39.80;35.50;;;22.30;99.90;;;;;;5031919;28;20433;-82
2021/06/09 07:53:40;;;;;;;42.47;37.10;;;22.40;99.90;;;;;;5034246;28;20558;-83
2021/06/09 07:56:11;;;;;;;38.80;34.67;;;22.40;99.90;;;;;;5041115;28;20808;-83
2021/06/09 07:58:41;;;;;;;45.97;38.07;;;22.50;99.90;;;;;;5027983;28;20484;-81
2021/06/09 08:01:09;;;;;;;44.03;38.13;;;22.50;99.90;;;;;;5041929;28;20465;-81
2021/06/09 08:03:37;;;;;;;48.37;38.27;;;22.50;99.90;;;;;;5028978;28;20773;-80
2021/06/09 08:06:04;;;;;;;43.60;36.90;;;22.50;99.90;;;;;;5032613;28;20455;-79
2021/06/09 08:08:31;;;;;;;41.17;36.67;;;22.60;99.90;;;;;;5048510;28;20891;-80
2021/06/09 08:10:58;;;;;;;41.83;37.33;;;22.70;99.90;;;;;;5031956;28;20439;-78
2021/06/09 08:13:28;;;;;;;41.50;37.03;;;22.80;99.90;;;;;;5034354;28;20460;-81
2021/06/09 08:15:55;;;;;;;42.10;35.70;;;22.80;99.90;;;;;;5019263;28;20461;-80
2021/06/09 08:18:23;;;;;;;45.70;37.27;;;23.00;99.90;;;;;;5032436;28;20446;-81
2021/06/09 08:21:12;;;;;;;44.70;37.80;;;22.90;99.90;;;;;;5034236;28;20847;-81
2021/06/09 08:23:41;;;;;;;40.73;36.50;;;22.90;99.90;;;;;;5047911;28;20425;-81
2021/06/09 08:26:09;;;;;;;45.10;35.77;;;23.00;99.90;;;;;;5037829;28;20439;-80
2021/06/09 08:28:40;;;;;;;44.17;36.90;;;23.10;99.90;;;;;;5042716;28;20442;-80
2021/06/09 08:31:08;;;;;;;42.00;36.40;;;23.10;99.90;;;;;;5039164;28;20584;-81
2021/06/09 08:33:38;;;;;;;44.53;37.70;;;23.10;99.90;;;;;;5056486;28;20496;-81
2021/06/09 08:36:06;;;;;;;46.57;39.23;;;23.20;99.90;;;;;;5062777;28;20539;-80
2021/06/09 08:38:36;;;;;;;43.47;36.20;;;23.30;99.90;;;;;;5034325;28;20445;-81
2021/06/09 08:41:09;;;;;;;44.20;38.60;;;23.30;99.90;;;;;;5055415;28;20477;-80
2021/06/09 08:43:37;;;;;;;45.13;40.23;;;23.40;99.90;;;;;;5055046;28;20441;-80
2021/06/09 08:46:07;;;;;;;55.20;45.67;;;23.50;99.90;;;;;;5058307;28;20525;-82
2021/06/09 08:48:38;;;;;;;42.90;38.30;;;23.70;99.90;;;;;;5060286;28;20445;-82
2021/06/09 08:51:07;;;;;;;38.60;34.97;;;23.70;99.90;;;;;;5064773;28;20443;-82
2021/06/09 08:53:36;;;;;;;35.80;32.07;;;23.70;99.90;;;;;;5064886;28;20773;-82
2021/06/09 08:56:03;;;;;;;34.97;31.50;;;23.80;99.90;;;;;;5044357;28;20939;-82
2021/06/09 08:58:29;;;;;;;34.57;31.30;;;23.90;99.90;;;;;;5067915;28;20879;-81
2021/06/09 09:00:56;;;;;;;37.63;33.93;;;23.90;99.90;;;;;;5061744;28;20787;-81
2021/06/09 09:03:24;;;;;;;36.07;31.87;;;23.90;99.90;;;;;;5057174;28;20549;-80
2021/06/09 09:05:50;;;;;;;37.83;33.90;;;24.00;99.90;;;;;;5062826;28;20969;-80
2021/06/09 09:08:16;;;;;;;38.87;35.23;;;24.10;99.90;;;;;;5057310;28;20524;-80
2021/06/09 09:10:47;;;;;;;38.93;35.10;;;24.20;99.90;;;;;;5064245;28;20429;-81
2021/06/09 09:13:13;;;;;;;36.03;32.20;;;24.20;99.90;;;;;;5061845;28;20204;-80
2021/06/09 09:15:42;;;;;;;31.30;28.43;;;24.30;99.90;;;;;;5053188;28;20862;-80
2021/06/09 09:18:09;;;;;;;33.73;30.57;;;24.50;99.90;;;;;;5041768;28;20450;-81
2021/06/09 09:20:39;;;;;;;34.67;31.37;;;24.40;99.50;;;;;;5050574;28;20426;-81
2021/06/09 09:23:28;;;;;;;32.47;29.37;;;24.30;99.50;;;;;;5060346;28;20778;-82
2021/06/09 09:25:58;;;;;;;37.43;33.97;;;24.50;99.90;;;;;;5047624;28;20533;-79
2021/06/09 09:28:34;;;;;;;38.93;35.23;;;24.70;99.80;;;;;;5068523;28;20849;-81
2021/06/09 09:31:18;;;;;;;34.67;31.30;;;24.90;98.60;;;;;;5061919;28;20432;-79
2021/06/09 09:33:44;;;;;;;35.20;31.90;;;25.20;97.90;;;;;;5054952;28;20540;-79
2021/06/09 09:36:26;;;;;;;38.20;34.50;;;25.40;98.40;;;;;;5033198;28;20466;-78
2021/06/09 09:38:53;;;;;;;33.83;30.83;;;25.60;96.60;;;;;;5037483;28;20496;-80
2021/06/09 09:41:32;;;;;;;33.27;30.20;;;25.70;96.80;;;;;;5035574;28;20535;-80
2021/06/09 09:44:02;;;;;;;36.50;32.70;;;26.10;97.90;;;;;;5062721;28;20558;-81
2021/06/09 09:46:34;;;;;;;35.87;32.50;;;26.10;97.30;;;;;;5045731;28;20823;-80
2021/06/09 09:49:08;;;;;;;38.07;34.47;;;26.30;96.70;;;;;;5049187;28;20435;-79
2021/06/09 09:52:01;;;;;;;37.00;33.30;;;26.30;95.00;;;;;;5050306;28;20454;-79
2021/06/09 09:54:32;;;;;;;32.97;30.27;;;26.40;95.50;;;;;;5044707;28;20429;-79
2021/06/09 09:57:07;;;;;;;36.17;32.97;;;26.60;96.40;;;;;;5055439;28;20442;-80
2021/06/09 09:59:34;;;;;;;32.00;29.17;;;26.70;93.60;;;;;;5046606;28;20454;-81
2021/06/09 10:02:04;;;;;;;33.30;30.40;;;26.90;94.50;;;;;;5040675;28;20779;-80
2021/06/09 10:04:38;;;;;;;37.00;33.57;;;27.00;93.00;;;;;;5049244;28;20448;-79
2021/06/09 10:07:08;;;;;;;37.10;33.63;;;26.90;93.10;;;;;;5046598;28;20445;-79
2021/06/09 10:09:43;;;;;;;32.17;29.40;;;27.00;92.70;;;;;;5051248;28;20776;-79
2021/06/09 10:12:13;;;;;;;33.23;30.23;;;26.90;93.70;;;;;;5043884;28;20428;-82
2021/06/09 10:14:48;;;;;;;33.20;30.40;;;27.00;92.60;;;;;;5055473;28;20445;-80
2021/06/09 10:17:23;;;;;;;30.87;28.07;;;27.00;92.20;;;;;;5033084;28;20883;-80
2021/06/09 10:19:53;;;;;;;31.87;29.13;;;27.00;92.90;;;;;;5069126;28;20485;-82
2021/06/09 10:22:25;;;;;;;33.83;30.93;;;27.10;91.50;;;;;;5039896;28;20930;-80
2021/06/09 10:24:58;;;;;;;30.67;28.07;;;27.10;91.80;;;;;;5046208;28;20765;-80
2021/06/09 10:27:48;;;;;;;32.93;29.80;;;27.30;91.50;;;;;;5061201;28;20841;-81
2021/06/09 10:30:17;;;;;;;31.97;28.77;;;27.40;91.60;;;;;;5065402;28;20437;-81
2021/06/09 10:32:51;;;;;;;29.90;27.30;;;27.40;91.30;;;;;;5037092;28;20942;-81
2021/06/09 10:35:22;;;;;;;28.40;25.83;;;27.80;86.60;;;;;;5003588;28;20474;-81
2021/06/09 10:37:49;;;;;;;31.40;28.60;;;27.90;86.50;;;;;;5019071;28;20428;-81
2021/06/09 10:40:26;;;;;;;28.77;25.73;;;28.00;84.40;;;;;;5001386;28;20446;-82
2021/06/09 10:42:58;;;;;;;29.60;26.93;;;28.10;86.60;;;;;;5033024;28;20442;-81
2021/06/09 10:45:25;;;;;;;30.03;27.00;;;28.20;88.40;;;;;;5017869;28;20910;-81
2021/06/09 10:47:56;;;;;;;29.97;27.57;;;28.50;84.20;;;;;;5039117;28;20426;-81
2021/06/09 10:50:25;;;;;;;27.63;24.93;;;28.70;84.70;;;;;;5024765;28;20447;-82
2021/06/09 10:52:54;;;;;;;29.20;26.40;;;28.90;86.10;;;;;;5033468;28;20441;-81
2021/06/09 10:55:21;;;;;;;25.10;22.90;;;29.10;82.30;;;;;;5024286;28;20465;-81
2021/06/09 10:57:50;;;;;;;28.80;26.20;;;29.20;85.20;;;;;;5015188;28;20465;-81
2021/06/09 11:00:20;;;;;;;32.00;28.90;;;29.30;80.60;;;;;;5048652;28;20431;-80
2021/06/09 11:02:48;;;;;;;31.63;28.83;;;29.20;80.00;;;;;;5045028;28;20481;-79
2021/06/09 11:05:15;;;;;;;28.07;25.80;;;29.30;77.30;;;;;;5032098;28;20431;-81
2021/06/09 11:07:45;;;;;;;30.80;28.40;;;29.40;77.10;;;;;;5032215;28;20427;-80
2021/06/09 11:10:30;;;;;;;29.87;27.37;;;29.40;78.00;;;;;;5039879;28;20915;-80
2021/06/09 11:12:59;;;;;;;27.03;24.73;;;29.60;79.20;;;;;;5026795;28;20501;-78
2021/06/09 11:15:31;;;;;;;26.83;24.73;;;29.90;79.00;;;;;;5034778;28;20566;-79
2021/06/09 11:18:03;;;;;;;30.00;27.50;;;29.90;77.40;;;;;;5032610;28;20423;-79
2021/06/09 11:20:37;;;;;;;29.80;27.40;;;29.80;77.30;;;;;;5036372;28;20832;-78
2021/06/09 11:23:28;;;;;;;32.13;29.63;;;30.00;78.00;;;;;;5032511;28;20447;-80
2021/06/09 11:25:55;;;;;;;30.50;28.17;;;30.10;75.80;;;;;;5031494;28;20554;-81
2021/06/09 11:28:36;;;;;;;32.00;29.20;;;30.30;73.90;;;;;;4999320;28;20432;-80
2021/06/09 11:31:03;;;;;;;27.93;25.83;;;30.50;73.30;;;;;;5032078;28;20775;-80
2021/06/09 11:33:35;;;;;;;29.33;26.77;;;30.90;73.00;;;;;;5011901;28;20471;-81
2021/06/09 11:36:23;;;;;;;27.40;25.30;;;31.10;71.50;;;;;;5032417;28;20554;-82
2021/06/09 11:38:50;;;;;;;25.37;23.47;;;31.10;70.30;;;;;;5000398;28;20435;-79
2021/06/09 11:41:22;;;;;;;30.00;27.30;;;31.10;67.90;;;;;;5032925;28;20447;-80
2021/06/09 11:43:54;;;;;;;27.97;25.63;;;30.80;64.50;;;;;;5027953;28;20428;-79
2021/06/09 11:46:33;;;;;;;26.53;24.20;;;31.00;64.00;;;;;;5014016;28;20853;-79
2021/06/09 11:49:07;;;;;;;26.73;24.40;;;31.30;66.50;;;;;;5006415;28;20438;-79
2021/06/09 11:51:37;;;;;;;29.33;26.90;;;31.10;62.30;;;;;;5016477;28;20432;-79
2021/06/09 11:54:27;;;;;;;25.13;23.13;;;30.90;63.10;;;;;;5035218;28;20895;-80
2021/06/09 11:56:59;;;;;;;23.97;22.17;;;30.60;62.80;;;;;;5036155;28;20489;-80
2021/06/09 11:59:37;;;;;;;22.27;20.43;;;30.20;68.40;;;;;;5036014;28;20443;-79
2021/06/09 12:02:08;;;;;;;25.97;24.07;;;29.90;69.50;;;;;;5034681;28;20426;-79
2021/06/09 12:04:40;;;;;;;27.53;25.17;;;29.80;67.20;;;;;;5017787;28;20427;-79
2021/06/09 12:07:25;;;;;;;24.53;22.57;;;29.90;68.10;;;;;;5027336;28;20415;-80
2021/06/09 12:09:59;;;;;;;24.17;22.37;;;30.20;65.70;;;;;;5035658;28;20427;-81
2021/06/09 12:12:27;;;;;;;24.23;22.40;;;30.70;65.60;;;;;;5034442;28;20516;-80
2021/06/09 12:14:55;;;;;;;23.53;21.70;;;30.90;63.00;;;;;;5034657;28;21013;-83
2021/06/09 12:18:12;;;;;;;25.17;23.17;;;31.00;65.80;;;;;;5018361;28;20438;-84
2021/06/09 12:20:41;;;;;;;23.10;21.50;;;31.10;64.00;;;;;;5017784;28;20522;-83
2021/06/09 12:23:12;;;;;;;24.00;22.20;;;30.80;66.00;;;;;;5000984;28;20479;-82
2021/06/09 12:31:12;;;;;;;24.67;22.77;;;30.80;66.30;;;;;;4955321;28;20495;-85
2021/06/09 12:33:44;;;;;;;23.80;21.87;;;31.10;66.80;;;;;;4962441;28;20461;-83
2021/06/09 12:36:53;;;;;;;;;;;;;;;;;;;;;
2021/06/09 12:44:58;;;;;;;25.83;23.87;;;31.40;62.60;;;;;;4955604;28;21317;-83
2021/06/09 12:51:42;;;;;;;25.20;23.50;;;32.10;61.40;;;;;;4930191;29;20495;-82
2021/06/09 12:54:14;;;;;;;22.50;21.00;;;32.40;58.30;;;;;;4941959;29;20444;-81
2021/06/09 12:56:40;;;;;;;18.17;16.97;;;32.40;57.30;;;;;;4927239;29;20541;-82
2021/06/09 12:59:08;;;;;;;21.30;19.80;;;32.50;57.70;;;;;;4951031;28;20522;-82
2021/06/09 13:01:37;;;;;;;21.03;19.40;;;32.50;55.30;;;;;;4940767;29;20578;-82
2021/06/09 13:04:03;;;;;;;21.70;20.27;;;32.50;57.10;;;;;;4945107;29;20203;-82
2021/06/09 13:06:30;;;;;;;21.20;19.80;;;32.60;53.90;;;;;;4948580;28;20420;-81